sensor_id;sensor_type;location;lat;lon;timestamp;P1;durP1;ratioP1;P2;durP2;ratioP2
24619;SDS011;12763;55.802;37.404;2023-09-30T00:00:57;27.48;;;11.85;;
24619;SDS011;12763;55.802;37.404;2023-09-30T00:03:23;23.40;;;11.90;;
24619;SDS011;12763;55.802;37.404;2023-09-30T00:05:49;22.45;;;12.63;;
24619;SDS011;12763;55.802;37.404;2023-09-30T00:08:16;25.08;;;13.95;;
24619;SDS011;12763;55.802;37.404;2023-09-30T00:10:41;27.30;;;13.48;;
24619;SDS011;12763;55.802;37.404;2023-09-30T00:13:08;33.88;;;13.32;;
24619;SDS011;12763;55.802;37.404;2023-09-30T00:15:34;22.23;;;11.90;;
24619;SDS011;12763;55.802;37.404;2023-09-30T00:18:00;19.65;;;11.43;;
24619;SDS011;12763;55.802;37.404;2023-09-30T00:20:27;27.10;;;11.93;;
24619;SDS011;12763;55.802;37.404;2023-09-30T00:22:54;23.83;;;13.02;;
24619;SDS011;12763;55.802;37.404;2023-09-30T00:25:20;24.27;;;12.43;;
24619;SDS011;12763;55.802;37.404;2023-09-30T00:27:49;27.85;;;13.00;;
24619;SDS011;12763;55.802;37.404;2023-09-30T00:30:14;22.10;;;10.60;;
24619;SDS011;12763;55.802;37.404;2023-09-30T00:32:42;24.33;;;11.77;;
24619;SDS011;12763;55.802;37.404;2023-09-30T00:35:08;20.88;;;11.25;;
24619;SDS011;12763;55.802;37.404;2023-09-30T00:37:39;29.35;;;11.25;;
24619;SDS011;12763;55.802;37.404;2023-09-30T00:40:06;23.70;;;11.38;;
24619;SDS011;12763;55.802;37.404;2023-09-30T00:42:38;23.52;;;12.60;;
24619;SDS011;12763;55.802;37.404;2023-09-30T00:45:05;21.52;;;11.55;;
24619;SDS011;12763;55.802;37.404;2023-09-30T00:47:33;20.92;;;11.50;;
24619;SDS011;12763;55.802;37.404;2023-09-30T00:49:59;18.48;;;11.18;;
24619;SDS011;12763;55.802;37.404;2023-09-30T00:52:26;23.13;;;11.75;;
24619;SDS011;12763;55.802;37.404;2023-09-30T00:54:53;21.08;;;11.05;;
24619;SDS011;12763;55.802;37.404;2023-09-30T00:57:20;19.00;;;10.88;;
24619;SDS011;12763;55.802;37.404;2023-09-30T00:59:47;25.73;;;12.13;;
24619;SDS011;12763;55.802;37.404;2023-09-30T01:02:17;27.63;;;11.65;;
24619;SDS011;12763;55.802;37.404;2023-09-30T01:04:44;25.77;;;11.52;;
24619;SDS011;12763;55.802;37.404;2023-09-30T01:07:10;22.42;;;12.30;;
24619;SDS011;12763;55.802;37.404;2023-09-30T01:09:37;21.92;;;10.88;;
24619;SDS011;12763;55.802;37.404;2023-09-30T01:12:04;17.85;;;10.68;;
24619;SDS011;12763;55.802;37.404;2023-09-30T01:14:31;17.85;;;11.55;;
24619;SDS011;12763;55.802;37.404;2023-09-30T01:17:04;23.67;;;11.38;;
24619;SDS011;12763;55.802;37.404;2023-09-30T01:19:34;20.10;;;11.43;;
24619;SDS011;12763;55.802;37.404;2023-09-30T01:22:00;19.80;;;11.10;;
24619;SDS011;12763;55.802;37.404;2023-09-30T01:24:29;24.58;;;11.77;;
24619;SDS011;12763;55.802;37.404;2023-09-30T01:26:56;22.95;;;11.75;;
24619;SDS011;12763;55.802;37.404;2023-09-30T01:29:22;21.08;;;11.63;;
24619;SDS011;12763;55.802;37.404;2023-09-30T01:31:50;21.63;;;11.07;;
24619;SDS011;12763;55.802;37.404;2023-09-30T01:34:16;18.65;;;11.88;;
24619;SDS011;12763;55.802;37.404;2023-09-30T01:36:42;23.98;;;12.32;;
24619;SDS011;12763;55.802;37.404;2023-09-30T01:39:12;23.98;;;11.10;;
24619;SDS011;12763;55.802;37.404;2023-09-30T01:41:39;22.25;;;12.07;;
24619;SDS011;12763;55.802;37.404;2023-09-30T01:44:06;22.85;;;11.57;;
24619;SDS011;12763;55.802;37.404;2023-09-30T01:46:33;26.95;;;11.25;;
24619;SDS011;12763;55.802;37.404;2023-09-30T01:48:59;21.88;;;11.70;;
24619;SDS011;12763;55.802;37.404;2023-09-30T01:51:25;22.02;;;11.05;;
24619;SDS011;12763;55.802;37.404;2023-09-30T01:53:53;20.88;;;10.73;;
24619;SDS011;12763;55.802;37.404;2023-09-30T01:56:19;21.42;;;11.90;;
24619;SDS011;12763;55.802;37.404;2023-09-30T01:58:45;22.38;;;11.65;;
24619;SDS011;12763;55.802;37.404;2023-09-30T02:01:10;21.35;;;12.07;;
24619;SDS011;12763;55.802;37.404;2023-09-30T02:03:36;21.88;;;11.05;;
24619;SDS011;12763;55.802;37.404;2023-09-30T02:06:03;25.33;;;11.48;;
24619;SDS011;12763;55.802;37.404;2023-09-30T02:08:30;22.02;;;11.35;;
24619;SDS011;12763;55.802;37.404;2023-09-30T02:10:57;23.10;;;11.95;;
24619;SDS011;12763;55.802;37.404;2023-09-30T02:13:23;24.10;;;11.43;;
24619;SDS011;12763;55.802;37.404;2023-09-30T02:15:49;33.45;;;12.48;;
24619;SDS011;12763;55.802;37.404;2023-09-30T02:18:15;26.27;;;12.25;;
24619;SDS011;12763;55.802;37.404;2023-09-30T02:20:41;20.58;;;11.25;;
24619;SDS011;12763;55.802;37.404;2023-09-30T02:23:07;19.40;;;10.82;;
24619;SDS011;12763;55.802;37.404;2023-09-30T02:25:39;24.55;;;11.20;;
24619;SDS011;12763;55.802;37.404;2023-09-30T02:28:06;20.90;;;11.20;;
24619;SDS011;12763;55.802;37.404;2023-09-30T02:30:32;22.33;;;11.77;;
24619;SDS011;12763;55.802;37.404;2023-09-30T02:32:59;24.52;;;11.77;;
24619;SDS011;12763;55.802;37.404;2023-09-30T02:35:25;20.00;;;11.63;;
24619;SDS011;12763;55.802;37.404;2023-09-30T02:37:51;18.63;;;11.23;;
24619;SDS011;12763;55.802;37.404;2023-09-30T02:40:18;21.92;;;11.57;;
24619;SDS011;12763;55.802;37.404;2023-09-30T02:42:45;22.33;;;10.75;;
24619;SDS011;12763;55.802;37.404;2023-09-30T02:45:12;21.27;;;11.57;;
24619;SDS011;12763;55.802;37.404;2023-09-30T02:47:38;19.23;;;11.00;;
24619;SDS011;12763;55.802;37.404;2023-09-30T02:50:05;25.52;;;11.63;;
24619;SDS011;12763;55.802;37.404;2023-09-30T02:52:33;21.80;;;11.70;;
24619;SDS011;12763;55.802;37.404;2023-09-30T02:55:02;21.13;;;11.57;;
24619;SDS011;12763;55.802;37.404;2023-09-30T02:57:29;21.70;;;10.52;;
24619;SDS011;12763;55.802;37.404;2023-09-30T02:59:57;20.42;;;11.25;;
24619;SDS011;12763;55.802;37.404;2023-09-30T03:02:25;20.50;;;9.98;;
24619;SDS011;12763;55.802;37.404;2023-09-30T03:04:51;18.13;;;10.95;;
24619;SDS011;12763;55.802;37.404;2023-09-30T03:07:18;17.85;;;10.05;;
24619;SDS011;12763;55.802;37.404;2023-09-30T03:09:45;21.35;;;11.32;;
24619;SDS011;12763;55.802;37.404;2023-09-30T03:12:12;21.95;;;11.57;;
24619;SDS011;12763;55.802;37.404;2023-09-30T03:14:40;20.55;;;12.07;;
24619;SDS011;12763;55.802;37.404;2023-09-30T03:17:06;20.67;;;11.10;;
24619;SDS011;12763;55.802;37.404;2023-09-30T03:19:37;24.27;;;11.70;;
24619;SDS011;12763;55.802;37.404;2023-09-30T03:22:04;21.95;;;11.43;;
24619;SDS011;12763;55.802;37.404;2023-09-30T03:24:39;17.83;;;10.27;;
24619;SDS011;12763;55.802;37.404;2023-09-30T03:27:07;20.55;;;11.38;;
24619;SDS011;12763;55.802;37.404;2023-09-30T03:29:35;20.73;;;11.40;;
24619;SDS011;12763;55.802;37.404;2023-09-30T03:32:01;19.90;;;10.98;;
24619;SDS011;12763;55.802;37.404;2023-09-30T03:34:27;21.90;;;11.52;;
24619;SDS011;12763;55.802;37.404;2023-09-30T03:36:54;20.23;;;11.73;;
24619;SDS011;12763;55.802;37.404;2023-09-30T03:39:22;20.67;;;11.25;;
24619;SDS011;12763;55.802;37.404;2023-09-30T03:41:53;24.25;;;11.88;;
24619;SDS011;12763;55.802;37.404;2023-09-30T03:44:23;21.58;;;11.32;;
24619;SDS011;12763;55.802;37.404;2023-09-30T03:46:50;23.35;;;11.65;;
24619;SDS011;12763;55.802;37.404;2023-09-30T03:49:17;23.13;;;11.27;;
24619;SDS011;12763;55.802;37.404;2023-09-30T03:51:45;27.30;;;11.93;;
24619;SDS011;12763;55.802;37.404;2023-09-30T03:54:11;22.27;;;11.85;;
24619;SDS011;12763;55.802;37.404;2023-09-30T03:56:37;17.55;;;11.05;;
24619;SDS011;12763;55.802;37.404;2023-09-30T03:59:06;19.08;;;11.07;;
24619;SDS011;12763;55.802;37.404;2023-09-30T04:01:34;23.52;;;11.90;;
24619;SDS011;12763;55.802;37.404;2023-09-30T04:04:00;24.75;;;11.60;;
24619;SDS011;12763;55.802;37.404;2023-09-30T04:06:26;19.65;;;11.07;;
24619;SDS011;12763;55.802;37.404;2023-09-30T04:08:52;19.98;;;11.80;;
24619;SDS011;12763;55.802;37.404;2023-09-30T04:11:17;24.77;;;12.45;;
24619;SDS011;12763;55.802;37.404;2023-09-30T04:13:44;26.00;;;11.32;;
24619;SDS011;12763;55.802;37.404;2023-09-30T04:16:10;23.33;;;11.57;;
24619;SDS011;12763;55.802;37.404;2023-09-30T04:18:36;22.95;;;11.80;;
24619;SDS011;12763;55.802;37.404;2023-09-30T04:21:04;23.35;;;11.52;;
24619;SDS011;12763;55.802;37.404;2023-09-30T04:23:30;20.73;;;10.45;;
24619;SDS011;12763;55.802;37.404;2023-09-30T04:25:56;19.05;;;11.25;;
24619;SDS011;12763;55.802;37.404;2023-09-30T04:28:22;24.08;;;12.63;;
24619;SDS011;12763;55.802;37.404;2023-09-30T04:30:49;21.58;;;11.05;;
24619;SDS011;12763;55.802;37.404;2023-09-30T04:33:16;19.52;;;11.35;;
24619;SDS011;12763;55.802;37.404;2023-09-30T04:35:50;19.95;;;10.98;;
24619;SDS011;12763;55.802;37.404;2023-09-30T04:38:16;25.10;;;11.20;;
24619;SDS011;12763;55.802;37.404;2023-09-30T04:40:41;26.58;;;11.52;;
24619;SDS011;12763;55.802;37.404;2023-09-30T04:43:10;19.02;;;11.68;;
24619;SDS011;12763;55.802;37.404;2023-09-30T04:45:36;20.67;;;11.52;;
24619;SDS011;12763;55.802;37.404;2023-09-30T04:48:02;20.55;;;11.48;;
24619;SDS011;12763;55.802;37.404;2023-09-30T04:50:29;23.33;;;11.60;;
24619;SDS011;12763;55.802;37.404;2023-09-30T04:52:56;28.80;;;11.23;;
24619;SDS011;12763;55.802;37.404;2023-09-30T04:55:25;20.05;;;11.35;;
24619;SDS011;12763;55.802;37.404;2023-09-30T04:57:51;22.55;;;10.73;;
24619;SDS011;12763;55.802;37.404;2023-09-30T05:00:18;27.30;;;12.23;;
24619;SDS011;12763;55.802;37.404;2023-09-30T05:02:51;20.42;;;11.00;;
24619;SDS011;12763;55.802;37.404;2023-09-30T05:05:20;23.05;;;11.80;;
24619;SDS011;12763;55.802;37.404;2023-09-30T05:07:46;19.40;;;10.77;;
24619;SDS011;12763;55.802;37.404;2023-09-30T05:10:13;25.55;;;11.43;;
24619;SDS011;12763;55.802;37.404;2023-09-30T05:12:44;22.23;;;11.77;;
24619;SDS011;12763;55.802;37.404;2023-09-30T05:15:14;20.08;;;10.82;;
24619;SDS011;12763;55.802;37.404;2023-09-30T05:17:41;24.67;;;11.60;;
24619;SDS011;12763;55.802;37.404;2023-09-30T05:20:11;22.92;;;11.98;;
24619;SDS011;12763;55.802;37.404;2023-09-30T05:22:38;25.85;;;12.32;;
24619;SDS011;12763;55.802;37.404;2023-09-30T05:25:13;23.63;;;11.35;;
24619;SDS011;12763;55.802;37.404;2023-09-30T05:27:45;24.27;;;11.57;;
24619;SDS011;12763;55.802;37.404;2023-09-30T05:30:13;18.27;;;11.27;;
24619;SDS011;12763;55.802;37.404;2023-09-30T05:32:42;26.20;;;11.77;;
24619;SDS011;12763;55.802;37.404;2023-09-30T05:35:08;21.77;;;12.23;;
24619;SDS011;12763;55.802;37.404;2023-09-30T05:37:41;20.17;;;11.50;;
24619;SDS011;12763;55.802;37.404;2023-09-30T05:40:08;20.90;;;12.10;;
24619;SDS011;12763;55.802;37.404;2023-09-30T05:42:56;24.50;;;12.48;;
24619;SDS011;12763;55.802;37.404;2023-09-30T05:45:32;27.23;;;12.25;;
24619;SDS011;12763;55.802;37.404;2023-09-30T05:48:01;26.58;;;13.23;;
24619;SDS011;12763;55.802;37.404;2023-09-30T05:50:29;18.77;;;12.00;;
24619;SDS011;12763;55.802;37.404;2023-09-30T05:52:55;18.05;;;11.32;;
24619;SDS011;12763;55.802;37.404;2023-09-30T05:55:21;18.58;;;11.75;;
24619;SDS011;12763;55.802;37.404;2023-09-30T05:57:48;26.23;;;12.70;;
24619;SDS011;12763;55.802;37.404;2023-09-30T06:00:15;23.60;;;11.98;;
24619;SDS011;12763;55.802;37.404;2023-09-30T06:02:49;22.05;;;12.40;;
24619;SDS011;12763;55.802;37.404;2023-09-30T06:05:17;20.45;;;11.73;;
24619;SDS011;12763;55.802;37.404;2023-09-30T06:07:48;19.38;;;11.80;;
24619;SDS011;12763;55.802;37.404;2023-09-30T06:10:14;18.85;;;11.73;;
24619;SDS011;12763;55.802;37.404;2023-09-30T06:12:46;19.25;;;11.43;;
24619;SDS011;12763;55.802;37.404;2023-09-30T06:15:14;22.60;;;12.40;;
24619;SDS011;12763;55.802;37.404;2023-09-30T06:17:41;22.90;;;12.15;;
24619;SDS011;12763;55.802;37.404;2023-09-30T06:20:08;21.23;;;11.52;;
24619;SDS011;12763;55.802;37.404;2023-09-30T06:22:41;25.70;;;12.65;;
24619;SDS011;12763;55.802;37.404;2023-09-30T06:25:09;21.38;;;11.88;;
24619;SDS011;12763;55.802;37.404;2023-09-30T06:27:35;22.98;;;12.50;;
24619;SDS011;12763;55.802;37.404;2023-09-30T06:30:01;21.38;;;11.85;;
24619;SDS011;12763;55.802;37.404;2023-09-30T06:32:29;20.90;;;11.20;;
24619;SDS011;12763;55.802;37.404;2023-09-30T06:34:55;26.23;;;11.07;;
24619;SDS011;12763;55.802;37.404;2023-09-30T06:37:21;26.08;;;11.50;;
24619;SDS011;12763;55.802;37.404;2023-09-30T06:39:47;22.50;;;12.15;;
24619;SDS011;12763;55.802;37.404;2023-09-30T06:42:13;24.27;;;12.32;;
24619;SDS011;12763;55.802;37.404;2023-09-30T06:44:39;23.45;;;12.57;;
24619;SDS011;12763;55.802;37.404;2023-09-30T06:47:05;22.25;;;11.98;;
24619;SDS011;12763;55.802;37.404;2023-09-30T06:49:33;22.73;;;12.95;;
24619;SDS011;12763;55.802;37.404;2023-09-30T06:51:59;21.63;;;12.23;;
24619;SDS011;12763;55.802;37.404;2023-09-30T06:54:26;27.80;;;12.80;;
24619;SDS011;12763;55.802;37.404;2023-09-30T06:56:52;24.55;;;12.32;;
24619;SDS011;12763;55.802;37.404;2023-09-30T06:59:18;26.05;;;12.85;;
24619;SDS011;12763;55.802;37.404;2023-09-30T07:01:44;28.77;;;12.38;;
24619;SDS011;12763;55.802;37.404;2023-09-30T07:04:09;24.77;;;11.70;;
24619;SDS011;12763;55.802;37.404;2023-09-30T07:06:37;26.50;;;12.20;;
24619;SDS011;12763;55.802;37.404;2023-09-30T07:09:02;20.95;;;12.38;;
24619;SDS011;12763;55.802;37.404;2023-09-30T07:11:29;18.40;;;10.98;;
24619;SDS011;12763;55.802;37.404;2023-09-30T07:13:59;24.73;;;13.27;;
24619;SDS011;12763;55.802;37.404;2023-09-30T07:16:25;24.33;;;12.43;;
24619;SDS011;12763;55.802;37.404;2023-09-30T07:18:51;19.98;;;12.15;;
24619;SDS011;12763;55.802;37.404;2023-09-30T07:21:17;25.50;;;12.38;;
24619;SDS011;12763;55.802;37.404;2023-09-30T07:23:43;20.73;;;11.57;;
24619;SDS011;12763;55.802;37.404;2023-09-30T07:26:09;22.38;;;12.02;;
24619;SDS011;12763;55.802;37.404;2023-09-30T07:28:35;19.67;;;10.10;;
24619;SDS011;12763;55.802;37.404;2023-09-30T07:31:00;19.77;;;11.65;;
24619;SDS011;12763;55.802;37.404;2023-09-30T07:33:26;18.33;;;10.10;;
24619;SDS011;12763;55.802;37.404;2023-09-30T07:35:52;20.45;;;10.18;;
24619;SDS011;12763;55.802;37.404;2023-09-30T07:38:21;14.05;;;9.73;;
24619;SDS011;12763;55.802;37.404;2023-09-30T07:40:48;21.55;;;10.40;;
24619;SDS011;12763;55.802;37.404;2023-09-30T07:43:14;24.95;;;11.88;;
24619;SDS011;12763;55.802;37.404;2023-09-30T07:45:43;27.35;;;12.45;;
24619;SDS011;12763;55.802;37.404;2023-09-30T07:48:09;21.48;;;11.70;;
24619;SDS011;12763;55.802;37.404;2023-09-30T07:50:36;21.90;;;11.07;;
24619;SDS011;12763;55.802;37.404;2023-09-30T07:53:04;20.80;;;12.30;;
24619;SDS011;12763;55.802;37.404;2023-09-30T07:55:30;23.88;;;12.15;;
24619;SDS011;12763;55.802;37.404;2023-09-30T07:57:56;23.05;;;11.93;;
24619;SDS011;12763;55.802;37.404;2023-09-30T08:00:25;18.10;;;10.80;;
24619;SDS011;12763;55.802;37.404;2023-09-30T08:02:50;15.85;;;10.07;;
24619;SDS011;12763;55.802;37.404;2023-09-30T08:05:16;16.80;;;9.48;;
24619;SDS011;12763;55.802;37.404;2023-09-30T08:07:42;24.38;;;9.65;;
24619;SDS011;12763;55.802;37.404;2023-09-30T08:10:08;16.17;;;9.55;;
24619;SDS011;12763;55.802;37.404;2023-09-30T08:12:39;15.52;;;9.05;;
24619;SDS011;12763;55.802;37.404;2023-09-30T08:15:06;18.35;;;9.38;;
24619;SDS011;12763;55.802;37.404;2023-09-30T08:17:34;16.23;;;8.75;;
24619;SDS011;12763;55.802;37.404;2023-09-30T08:19:59;17.05;;;8.88;;
24619;SDS011;12763;55.802;37.404;2023-09-30T08:22:26;12.95;;;8.98;;
24619;SDS011;12763;55.802;37.404;2023-09-30T08:24:53;19.30;;;9.75;;
24619;SDS011;12763;55.802;37.404;2023-09-30T08:27:20;19.00;;;9.68;;
24619;SDS011;12763;55.802;37.404;2023-09-30T08:29:46;19.33;;;9.32;;
24619;SDS011;12763;55.802;37.404;2023-09-30T08:32:11;13.45;;;8.73;;
24619;SDS011;12763;55.802;37.404;2023-09-30T08:34:37;15.88;;;8.88;;
24619;SDS011;12763;55.802;37.404;2023-09-30T08:37:03;18.65;;;9.77;;
24619;SDS011;12763;55.802;37.404;2023-09-30T08:39:29;15.98;;;8.40;;
24619;SDS011;12763;55.802;37.404;2023-09-30T08:41:55;20.13;;;8.48;;
24619;SDS011;12763;55.802;37.404;2023-09-30T08:44:21;15.68;;;8.63;;
24619;SDS011;12763;55.802;37.404;2023-09-30T08:46:48;13.73;;;8.40;;
24619;SDS011;12763;55.802;37.404;2023-09-30T08:49:16;15.73;;;8.52;;
24619;SDS011;12763;55.802;37.404;2023-09-30T08:51:43;23.65;;;8.90;;
24619;SDS011;12763;55.802;37.404;2023-09-30T08:54:10;21.00;;;8.55;;
24619;SDS011;12763;55.802;37.404;2023-09-30T08:56:36;11.85;;;7.88;;
24619;SDS011;12763;55.802;37.404;2023-09-30T08:59:06;11.95;;;7.57;;
24619;SDS011;12763;55.802;37.404;2023-09-30T09:01:32;18.55;;;7.93;;
24619;SDS011;12763;55.802;37.404;2023-09-30T09:03:59;14.15;;;7.60;;
24619;SDS011;12763;55.802;37.404;2023-09-30T09:06:26;15.20;;;8.80;;
24619;SDS011;12763;55.802;37.404;2023-09-30T09:08:52;17.20;;;8.25;;
24619;SDS011;12763;55.802;37.404;2023-09-30T09:11:18;12.93;;;8.05;;
24619;SDS011;12763;55.802;37.404;2023-09-30T09:13:48;23.33;;;8.70;;
24619;SDS011;12763;55.802;37.404;2023-09-30T09:16:16;19.77;;;7.78;;
24619;SDS011;12763;55.802;37.404;2023-09-30T09:18:46;15.20;;;8.13;;
24619;SDS011;12763;55.802;37.404;2023-09-30T09:21:22;14.18;;;8.15;;
24619;SDS011;12763;55.802;37.404;2023-09-30T09:23:51;19.38;;;8.45;;
24619;SDS011;12763;55.802;37.404;2023-09-30T09:28:56;16.23;;;8.57;;
24619;SDS011;12763;55.802;37.404;2023-09-30T09:31:23;14.82;;;9.02;;
24619;SDS011;12763;55.802;37.404;2023-09-30T09:33:50;18.02;;;8.15;;
24619;SDS011;12763;55.802;37.404;2023-09-30T09:36:17;17.50;;;7.80;;
24619;SDS011;12763;55.802;37.404;2023-09-30T09:38:45;18.58;;;7.63;;
24619;SDS011;12763;55.802;37.404;2023-09-30T09:41:19;16.48;;;8.75;;
24619;SDS011;12763;55.802;37.404;2023-09-30T09:43:48;17.17;;;8.65;;
24619;SDS011;12763;55.802;37.404;2023-09-30T09:46:17;16.20;;;7.78;;
24619;SDS011;12763;55.802;37.404;2023-09-30T09:48:46;11.77;;;7.53;;
24619;SDS011;12763;55.802;37.404;2023-09-30T09:51:14;14.38;;;7.60;;
24619;SDS011;12763;55.802;37.404;2023-09-30T09:53:45;13.57;;;7.20;;
24619;SDS011;12763;55.802;37.404;2023-09-30T09:56:16;18.58;;;8.20;;
24619;SDS011;12763;55.802;37.404;2023-09-30T09:58:49;12.90;;;7.22;;
24619;SDS011;12763;55.802;37.404;2023-09-30T10:01:19;11.18;;;8.15;;
24619;SDS011;12763;55.802;37.404;2023-09-30T10:03:47;18.50;;;7.85;;
24619;SDS011;12763;55.802;37.404;2023-09-30T10:06:14;17.70;;;8.75;;
24619;SDS011;12763;55.802;37.404;2023-09-30T10:08:42;14.93;;;7.93;;
24619;SDS011;12763;55.802;37.404;2023-09-30T10:11:22;14.10;;;8.82;;
24619;SDS011;12763;55.802;37.404;2023-09-30T10:13:56;10.55;;;7.82;;
24619;SDS011;12763;55.802;37.404;2023-09-30T10:19:07;13.25;;;8.43;;
24619;SDS011;12763;55.802;37.404;2023-09-30T10:21:36;14.80;;;9.02;;
24619;SDS011;12763;55.802;37.404;2023-09-30T10:36:01;17.90;;;8.90;;
24619;SDS011;12763;55.802;37.404;2023-09-30T10:40:47;13.13;;;7.43;;
24619;SDS011;12763;55.802;37.404;2023-09-30T10:45:54;15.68;;;8.45;;
24619;SDS011;12763;55.802;37.404;2023-09-30T10:50:52;16.48;;;8.38;;
24619;SDS011;12763;55.802;37.404;2023-09-30T10:53:25;15.63;;;8.70;;
24619;SDS011;12763;55.802;37.404;2023-09-30T10:55:57;18.80;;;8.35;;
24619;SDS011;12763;55.802;37.404;2023-09-30T11:01:16;12.65;;;8.30;;
24619;SDS011;12763;55.802;37.404;2023-09-30T11:03:45;17.58;;;7.93;;
24619;SDS011;12763;55.802;37.404;2023-09-30T11:06:15;12.80;;;7.35;;
24619;SDS011;12763;55.802;37.404;2023-09-30T11:14:24;11.80;;;7.68;;
24619;SDS011;12763;55.802;37.404;2023-09-30T11:16:53;11.10;;;8.00;;
24619;SDS011;12763;55.802;37.404;2023-09-30T11:19:22;14.43;;;7.50;;
24619;SDS011;12763;55.802;37.404;2023-09-30T11:21:48;11.73;;;6.75;;
24619;SDS011;12763;55.802;37.404;2023-09-30T11:24:15;11.40;;;6.95;;
24619;SDS011;12763;55.802;37.404;2023-09-30T11:26:42;11.85;;;6.93;;
24619;SDS011;12763;55.802;37.404;2023-09-30T11:31:46;12.05;;;8.00;;
24619;SDS011;12763;55.802;37.404;2023-09-30T11:34:17;12.10;;;7.15;;
24619;SDS011;12763;55.802;37.404;2023-09-30T11:36:51;13.55;;;7.40;;
24619;SDS011;12763;55.802;37.404;2023-09-30T11:39:36;15.38;;;7.47;;
24619;SDS011;12763;55.802;37.404;2023-09-30T11:42:02;14.75;;;7.53;;
24619;SDS011;12763;55.802;37.404;2023-09-30T11:44:44;11.57;;;7.30;;
24619;SDS011;12763;55.802;37.404;2023-09-30T11:47:12;12.57;;;6.18;;
24619;SDS011;12763;55.802;37.404;2023-09-30T11:49:41;8.23;;;6.22;;
24619;SDS011;12763;55.802;37.404;2023-09-30T11:52:11;13.52;;;6.75;;
24619;SDS011;12763;55.802;37.404;2023-09-30T11:54:40;12.52;;;7.07;;
24619;SDS011;12763;55.802;37.404;2023-09-30T11:57:10;10.05;;;5.82;;
24619;SDS011;12763;55.802;37.404;2023-09-30T11:59:44;11.65;;;6.68;;
24619;SDS011;12763;55.802;37.404;2023-09-30T12:02:17;10.95;;;7.40;;
24619;SDS011;12763;55.802;37.404;2023-09-30T12:04:43;18.23;;;7.15;;
24619;SDS011;12763;55.802;37.404;2023-09-30T12:07:10;10.52;;;6.65;;
24619;SDS011;12763;55.802;37.404;2023-09-30T12:09:36;14.82;;;7.47;;
24619;SDS011;12763;55.802;37.404;2023-09-30T12:12:05;12.27;;;6.30;;
24619;SDS011;12763;55.802;37.404;2023-09-30T12:14:35;15.57;;;7.82;;
24619;SDS011;12763;55.802;37.404;2023-09-30T12:17:01;12.38;;;6.65;;
24619;SDS011;12763;55.802;37.404;2023-09-30T12:19:27;13.30;;;8.05;;
24619;SDS011;12763;55.802;37.404;2023-09-30T12:21:55;10.30;;;7.28;;
24619;SDS011;12763;55.802;37.404;2023-09-30T12:24:21;13.50;;;7.60;;
24619;SDS011;12763;55.802;37.404;2023-09-30T12:26:49;11.55;;;7.05;;
24619;SDS011;12763;55.802;37.404;2023-09-30T12:29:17;11.50;;;7.28;;
24619;SDS011;12763;55.802;37.404;2023-09-30T12:31:44;13.45;;;7.40;;
24619;SDS011;12763;55.802;37.404;2023-09-30T12:34:14;13.10;;;7.45;;
24619;SDS011;12763;55.802;37.404;2023-09-30T12:36:41;12.38;;;7.30;;
24619;SDS011;12763;55.802;37.404;2023-09-30T12:39:08;15.43;;;7.93;;
24619;SDS011;12763;55.802;37.404;2023-09-30T12:41:38;14.43;;;7.85;;
24619;SDS011;12763;55.802;37.404;2023-09-30T12:44:06;11.10;;;8.00;;
24619;SDS011;12763;55.802;37.404;2023-09-30T12:46:35;12.75;;;8.10;;
24619;SDS011;12763;55.802;37.404;2023-09-30T12:49:03;14.45;;;8.40;;
24619;SDS011;12763;55.802;37.404;2023-09-30T12:51:29;14.77;;;8.00;;
24619;SDS011;12763;55.802;37.404;2023-09-30T12:53:56;16.55;;;8.65;;
24619;SDS011;12763;55.802;37.404;2023-09-30T12:56:23;13.00;;;8.18;;
24619;SDS011;12763;55.802;37.404;2023-09-30T12:58:50;15.85;;;8.63;;
24619;SDS011;12763;55.802;37.404;2023-09-30T13:01:16;15.73;;;8.55;;
24619;SDS011;12763;55.802;37.404;2023-09-30T13:03:46;16.40;;;8.90;;
24619;SDS011;12763;55.802;37.404;2023-09-30T13:06:12;21.38;;;8.75;;
24619;SDS011;12763;55.802;37.404;2023-09-30T13:08:39;14.38;;;8.38;;
24619;SDS011;12763;55.802;37.404;2023-09-30T13:11:05;13.15;;;8.00;;
24619;SDS011;12763;55.802;37.404;2023-09-30T13:13:33;15.73;;;8.52;;
24619;SDS011;12763;55.802;37.404;2023-09-30T13:16:02;20.58;;;9.85;;
24619;SDS011;12763;55.802;37.404;2023-09-30T13:18:32;19.50;;;8.60;;
24619;SDS011;12763;55.802;37.404;2023-09-30T13:20:59;18.15;;;8.77;;
24619;SDS011;12763;55.802;37.404;2023-09-30T13:23:25;15.85;;;8.55;;
24619;SDS011;12763;55.802;37.404;2023-09-30T13:25:53;13.85;;;7.40;;
24619;SDS011;12763;55.802;37.404;2023-09-30T13:28:19;15.88;;;7.47;;
24619;SDS011;12763;55.802;37.404;2023-09-30T13:30:45;13.02;;;7.57;;
24619;SDS011;12763;55.802;37.404;2023-09-30T13:33:11;11.75;;;7.35;;
24619;SDS011;12763;55.802;37.404;2023-09-30T13:35:37;14.65;;;7.63;;
24619;SDS011;12763;55.802;37.404;2023-09-30T13:38:03;14.68;;;7.35;;
24619;SDS011;12763;55.802;37.404;2023-09-30T13:40:29;14.30;;;7.53;;
24619;SDS011;12763;55.802;37.404;2023-09-30T13:42:55;18.35;;;7.00;;
24619;SDS011;12763;55.802;37.404;2023-09-30T13:45:22;15.13;;;7.00;;
24619;SDS011;12763;55.802;37.404;2023-09-30T13:47:49;12.55;;;7.63;;
24619;SDS011;12763;55.802;37.404;2023-09-30T13:50:15;16.42;;;7.90;;
24619;SDS011;12763;55.802;37.404;2023-09-30T13:52:41;16.02;;;7.45;;
24619;SDS011;12763;55.802;37.404;2023-09-30T13:55:08;14.02;;;7.55;;
24619;SDS011;12763;55.802;37.404;2023-09-30T13:57:34;14.60;;;7.95;;
24619;SDS011;12763;55.802;37.404;2023-09-30T14:00:03;13.70;;;7.45;;
24619;SDS011;12763;55.802;37.404;2023-09-30T14:02:32;11.48;;;7.38;;
24619;SDS011;12763;55.802;37.404;2023-09-30T14:04:58;17.27;;;7.97;;
24619;SDS011;12763;55.802;37.404;2023-09-30T14:07:25;9.48;;;7.07;;
24619;SDS011;12763;55.802;37.404;2023-09-30T14:09:51;13.05;;;7.28;;
24619;SDS011;12763;55.802;37.404;2023-09-30T14:12:18;15.38;;;8.68;;
24619;SDS011;12763;55.802;37.404;2023-09-30T14:14:44;18.65;;;8.38;;
24619;SDS011;12763;55.802;37.404;2023-09-30T14:17:10;17.13;;;8.18;;
24619;SDS011;12763;55.802;37.404;2023-09-30T14:19:36;11.38;;;8.48;;
24619;SDS011;12763;55.802;37.404;2023-09-30T14:22:04;13.80;;;8.45;;
24619;SDS011;12763;55.802;37.404;2023-09-30T14:24:31;12.38;;;7.43;;
24619;SDS011;12763;55.802;37.404;2023-09-30T14:27:01;13.38;;;8.30;;
24619;SDS011;12763;55.802;37.404;2023-09-30T14:29:30;14.38;;;8.65;;
24619;SDS011;12763;55.802;37.404;2023-09-30T14:31:56;17.63;;;7.57;;
24619;SDS011;12763;55.802;37.404;2023-09-30T14:34:23;13.65;;;8.48;;
24619;SDS011;12763;55.802;37.404;2023-09-30T14:36:50;11.10;;;8.32;;
24619;SDS011;12763;55.802;37.404;2023-09-30T14:39:17;22.10;;;9.10;;
24619;SDS011;12763;55.802;37.404;2023-09-30T14:41:43;18.02;;;9.35;;
24619;SDS011;12763;55.802;37.404;2023-09-30T14:44:12;17.27;;;9.32;;
24619;SDS011;12763;55.802;37.404;2023-09-30T14:46:38;19.55;;;8.90;;
24619;SDS011;12763;55.802;37.404;2023-09-30T14:49:04;21.02;;;9.48;;
24619;SDS011;12763;55.802;37.404;2023-09-30T14:51:34;15.30;;;8.65;;